createdAt,value
2023-03-03T00:00:12.083Z,2.90
2023-03-03T00:01:12.074Z,2.92
2023-03-03T00:02:12.137Z,2.94
2023-03-03T00:03:12.071Z,2.92
2023-03-03T00:04:12.042Z,2.92
2023-03-03T00:05:12.052Z,2.92
2023-03-03T00:06:12.023Z,2.92
2023-03-03T00:07:12.013Z,2.92
2023-03-03T00:08:12.020Z,2.94
2023-03-03T00:09:12.089Z,2.94
2023-03-03T00:10:11.974Z,2.95
2023-03-03T00:11:11.964Z,2.95
2023-03-03T00:12:11.952Z,2.94
2023-03-03T00:13:11.943Z,2.94
2023-03-03T00:14:11.934Z,2.92
2023-03-03T00:15:11.922Z,2.90
2023-03-03T00:16:11.938Z,2.89
2023-03-03T00:17:11.908Z,2.89
2023-03-03T00:18:11.890Z,2.86
2023-03-03T00:19:11.928Z,2.84
2023-03-03T00:20:11.874Z,2.84
2023-03-03T00:21:11.932Z,2.81
2023-03-03T00:22:11.844Z,2.84
2023-03-03T00:23:11.835Z,2.81
2023-03-03T00:24:11.873Z,2.83
2023-03-03T00:25:11.816Z,2.84
2023-03-03T00:26:11.902Z,2.83
2023-03-03T00:27:11.793Z,2.81
2023-03-03T00:28:11.780Z,2.80
2023-03-03T00:29:11.778Z,2.83
2023-03-03T00:30:11.763Z,2.80
2023-03-03T00:31:11.851Z,2.80
2023-03-03T00:32:11.796Z,2.83
2023-03-03T00:33:11.732Z,2.81
2023-03-03T00:34:11.925Z,2.81
2023-03-03T00:35:11.708Z,2.79
2023-03-03T00:36:11.699Z,2.80
2023-03-03T00:37:11.712Z,2.80
2023-03-03T00:38:11.680Z,2.80
2023-03-03T00:39:11.668Z,2.80
2023-03-03T00:40:11.661Z,2.83
2023-03-03T00:41:11.651Z,2.81
2023-03-03T00:42:11.637Z,2.80
2023-03-03T00:43:11.624Z,2.79
2023-03-03T00:44:11.615Z,2.77
2023-03-03T00:45:11.608Z,2.79
2023-03-03T00:46:11.663Z,2.77
2023-03-03T00:47:11.582Z,2.80
2023-03-03T00:48:11.772Z,2.80
2023-03-03T00:49:11.565Z,2.80
2023-03-03T00:50:11.646Z,2.79
2023-03-03T00:51:11.543Z,2.81
2023-03-03T00:52:11.531Z,2.77
2023-03-03T00:53:11.546Z,2.81
2023-03-03T00:54:11.510Z,2.79
2023-03-03T00:55:11.502Z,2.79
2023-03-03T00:56:11.488Z,2.80
2023-03-03T00:57:11.483Z,2.81
2023-03-03T00:58:11.464Z,2.80
2023-03-03T00:59:11.459Z,2.80
2023-03-03T01:00:11.449Z,2.81
2023-03-03T01:01:11.438Z,2.83
2023-03-03T01:02:11.433Z,2.83
2023-03-03T01:03:11.415Z,2.81
2023-03-03T01:04:11.401Z,2.81
2023-03-03T01:05:11.393Z,2.80
2023-03-03T01:06:11.384Z,2.81
2023-03-03T01:07:11.371Z,2.84
2023-03-03T01:08:11.357Z,2.83
2023-03-03T01:09:11.374Z,2.81
2023-03-03T01:10:11.336Z,2.81
2023-03-03T01:11:11.327Z,2.80
2023-03-03T01:12:11.326Z,2.81
2023-03-03T01:13:11.311Z,2.80
2023-03-03T01:14:11.330Z,2.80
2023-03-03T01:15:11.290Z,2.81
2023-03-03T01:16:11.361Z,2.83
2023-03-03T01:17:11.262Z,2.83
2023-03-03T01:18:11.250Z,2.83
2023-03-03T01:19:11.244Z,2.80
2023-03-03T01:20:11.231Z,2.80
2023-03-03T01:21:11.228Z,2.73
2023-03-03T01:22:11.212Z,2.71
2023-03-03T01:23:11.199Z,2.73
2023-03-03T01:24:11.187Z,2.73
2023-03-03T01:25:11.203Z,2.73
2023-03-03T01:26:11.169Z,2.73
2023-03-03T01:27:11.159Z,2.74
2023-03-03T01:28:11.153Z,2.73
2023-03-03T01:29:11.134Z,2.73
2023-03-03T01:30:11.125Z,2.74
2023-03-03T01:31:11.148Z,2.71
2023-03-03T01:32:11.157Z,2.73
2023-03-03T01:33:11.120Z,2.74
2023-03-03T01:34:11.086Z,2.74
2023-03-03T01:35:11.073Z,2.74
2023-03-03T01:36:11.067Z,2.74
2023-03-03T01:37:11.053Z,2.74
2023-03-03T01:38:11.043Z,2.77
2023-03-03T01:39:11.033Z,2.76
2023-03-03T01:40:11.016Z,2.76
2023-03-03T01:41:11.032Z,2.74
2023-03-03T01:42:11.002Z,2.73
2023-03-03T01:43:10.989Z,2.69
2023-03-03T01:44:11.005Z,2.71
2023-03-03T01:45:10.964Z,2.73
2023-03-03T01:46:10.978Z,2.74
2023-03-03T01:47:10.947Z,2.74
2023-03-03T01:48:10.929Z,2.73
2023-03-03T01:49:10.923Z,2.71
2023-03-03T01:50:10.916Z,2.66
2023-03-03T01:51:10.901Z,2.69
2023-03-03T01:52:10.893Z,2.73
2023-03-03T01:53:10.886Z,2.71
2023-03-03T01:54:10.873Z,2.71
2023-03-03T01:55:10.864Z,2.69
2023-03-03T01:56:10.845Z,2.71
2023-03-03T01:57:10.863Z,2.71
2023-03-03T01:58:10.825Z,2.74
2023-03-03T01:59:10.815Z,2.74
2023-03-03T02:00:10.804Z,2.76
2023-03-03T02:01:12.288Z,2.74
2023-03-03T02:02:10.894Z,2.74
2023-03-03T02:03:10.925Z,2.71
2023-03-03T02:04:10.779Z,2.68
2023-03-03T02:05:10.760Z,2.63
2023-03-03T02:06:10.750Z,2.61
2023-03-03T02:07:10.730Z,2.62
2023-03-03T02:08:10.720Z,2.63
2023-03-03T02:09:10.712Z,2.65
2023-03-03T02:10:10.698Z,2.65
2023-03-03T02:11:10.691Z,2.66
2023-03-03T02:12:10.680Z,2.66
2023-03-03T02:13:10.698Z,2.68
2023-03-03T02:14:10.656Z,2.69
2023-03-03T02:15:10.649Z,2.68
2023-03-03T02:16:10.670Z,2.69
2023-03-03T02:17:10.630Z,2.71
2023-03-03T02:18:10.620Z,2.71
2023-03-03T02:19:10.608Z,2.69
2023-03-03T02:20:10.599Z,2.73
2023-03-03T02:21:10.596Z,2.73
2023-03-03T02:22:10.587Z,2.71
2023-03-03T02:23:10.574Z,2.74
2023-03-03T02:24:10.560Z,2.73
2023-03-03T02:25:10.546Z,2.71
2023-03-03T02:26:10.544Z,2.69
2023-03-03T02:27:10.524Z,2.71
2023-03-03T02:28:10.511Z,2.73
2023-03-03T02:29:10.536Z,2.71
2023-03-03T02:30:10.491Z,2.69
2023-03-03T02:31:10.507Z,2.69
2023-03-03T02:32:10.495Z,2.68
2023-03-03T02:33:10.468Z,2.68
2023-03-03T02:34:10.453Z,2.73
2023-03-03T02:35:10.441Z,2.71
2023-03-03T02:36:10.428Z,2.69
2023-03-03T02:37:10.421Z,2.73
2023-03-03T02:38:10.408Z,2.71
2023-03-03T02:39:10.397Z,2.73
2023-03-03T02:40:10.387Z,2.71
2023-03-03T02:41:10.378Z,2.71
2023-03-03T02:42:10.372Z,2.71
2023-03-03T02:43:10.360Z,2.69
2023-03-03T02:44:10.341Z,2.71
2023-03-03T02:45:10.361Z,2.71
2023-03-03T02:46:10.319Z,2.76
2023-03-03T02:47:10.309Z,2.73
2023-03-03T02:48:10.301Z,2.74
2023-03-03T02:49:10.289Z,2.76
2023-03-03T02:50:10.274Z,2.76
2023-03-03T02:51:10.268Z,2.77
2023-03-03T02:52:10.254Z,2.76
2023-03-03T02:53:10.251Z,2.79
2023-03-03T02:54:10.241Z,2.77
2023-03-03T02:55:10.222Z,2.77
2023-03-03T02:56:10.216Z,2.76
2023-03-03T02:57:10.201Z,2.77
2023-03-03T02:58:10.188Z,2.77
2023-03-03T02:59:10.230Z,2.76
2023-03-03T03:00:10.169Z,2.76
2023-03-03T03:01:10.243Z,2.76
2023-03-03T03:02:10.147Z,2.77
2023-03-03T03:03:10.136Z,2.76
2023-03-03T03:04:10.148Z,2.77
2023-03-03T03:05:10.124Z,2.79
2023-03-03T03:06:10.106Z,2.79
2023-03-03T03:07:10.090Z,2.80
2023-03-03T03:08:10.084Z,2.77
2023-03-03T03:09:10.070Z,2.79
2023-03-03T03:10:10.060Z,2.74
2023-03-03T03:11:10.053Z,2.74
2023-03-03T03:12:10.050Z,2.74
2023-03-03T03:13:10.059Z,2.76
2023-03-03T03:14:10.019Z,2.74
2023-03-03T03:15:10.008Z,2.74
2023-03-03T03:16:10.131Z,2.74
2023-03-03T03:17:10.010Z,2.71
2023-03-03T03:18:09.975Z,2.71
2023-03-03T03:19:09.969Z,2.69
2023-03-03T03:20:09.954Z,2.69
2023-03-03T03:21:09.962Z,2.71
2023-03-03T03:22:09.932Z,2.73
2023-03-03T03:23:09.933Z,2.74
2023-03-03T03:24:09.930Z,2.74
2023-03-03T03:25:09.895Z,2.76
2023-03-03T03:26:09.889Z,2.77
2023-03-03T03:27:09.878Z,2.79
2023-03-03T03:28:09.867Z,2.79
2023-03-03T03:29:09.851Z,2.74
2023-03-03T03:30:09.846Z,2.77
2023-03-03T03:31:09.911Z,2.79
2023-03-03T03:32:09.876Z,2.77
2023-03-03T03:33:09.838Z,2.80
2023-03-03T03:34:09.813Z,2.79
2023-03-03T03:35:09.790Z,2.76
2023-03-03T03:36:09.780Z,2.76
2023-03-03T03:37:09.780Z,2.74
2023-03-03T03:38:09.760Z,2.77
2023-03-03T03:39:09.748Z,2.76
2023-03-03T03:40:09.744Z,2.77
2023-03-03T03:41:09.735Z,2.77
2023-03-03T03:42:09.719Z,2.80
2023-03-03T03:43:09.702Z,2.77
2023-03-03T03:44:09.698Z,2.80
2023-03-03T03:45:09.681Z,2.80
2023-03-03T03:46:09.744Z,2.81
2023-03-03T03:47:09.657Z,2.81
2023-03-03T03:48:09.653Z,2.81
2023-03-03T03:49:09.661Z,2.80
2023-03-03T03:50:09.630Z,2.80
2023-03-03T03:51:09.618Z,2.79
2023-03-03T03:52:09.619Z,2.77
2023-03-03T03:53:09.596Z,2.77
2023-03-03T03:54:09.591Z,2.76
2023-03-03T03:55:09.575Z,2.77
2023-03-03T03:56:09.566Z,2.73
2023-03-03T03:57:09.560Z,2.77
2023-03-03T03:58:09.545Z,2.74
2023-03-03T03:59:09.538Z,2.73
2023-03-03T04:00:09.536Z,2.76
2023-03-03T04:01:09.513Z,2.74
2023-03-03T04:02:09.640Z,2.74
2023-03-03T04:03:09.670Z,2.74
2023-03-03T04:04:09.484Z,2.71
2023-03-03T04:05:09.498Z,2.71
2023-03-03T04:06:09.473Z,2.68
2023-03-03T04:07:11.429Z,2.65
2023-03-03T04:08:09.451Z,2.66
2023-03-03T04:09:09.430Z,2.63
2023-03-03T04:10:09.420Z,2.66
2023-03-03T04:11:09.409Z,2.62
2023-03-03T04:12:09.398Z,2.65
2023-03-03T04:13:09.387Z,2.65
2023-03-03T04:14:09.378Z,2.63
2023-03-03T04:15:09.364Z,2.63
2023-03-03T04:16:09.430Z,2.63
2023-03-03T04:17:09.343Z,2.63
2023-03-03T04:18:09.336Z,2.63
2023-03-03T04:19:09.326Z,2.65
2023-03-03T04:20:09.315Z,2.65
2023-03-03T04:21:09.325Z,2.66
2023-03-03T04:22:09.292Z,2.68
2023-03-03T04:23:09.280Z,2.68
2023-03-03T04:24:09.296Z,2.68
2023-03-03T04:25:09.273Z,2.69
2023-03-03T04:26:09.252Z,2.69
2023-03-03T04:27:09.238Z,2.71
2023-03-03T04:28:09.226Z,2.71
2023-03-03T04:29:09.216Z,2.73
2023-03-03T04:30:09.229Z,2.76
2023-03-03T04:31:09.306Z,2.74
2023-03-03T04:32:09.251Z,2.76
2023-03-03T04:33:09.171Z,2.74
2023-03-03T04:34:09.164Z,2.74
2023-03-03T04:35:09.153Z,2.74
2023-03-03T04:36:09.145Z,2.74
2023-03-03T04:37:09.155Z,2.74
2023-03-03T04:38:09.120Z,2.77
2023-03-03T04:39:09.106Z,2.77
2023-03-03T04:40:09.099Z,2.77
2023-03-03T04:41:09.093Z,2.77
2023-03-03T04:42:09.083Z,2.79
2023-03-03T04:43:09.068Z,2.79
2023-03-03T04:44:09.056Z,2.81
2023-03-03T04:45:09.105Z,2.81
2023-03-03T04:46:09.070Z,2.81
2023-03-03T04:47:09.030Z,2.83
2023-03-03T04:48:09.018Z,2.83
2023-03-03T04:49:12.043Z,2.83
2023-03-03T04:50:08.995Z,2.81
2023-03-03T04:51:08.989Z,2.83
2023-03-03T04:52:08.972Z,2.83
2023-03-03T04:53:08.986Z,2.83
2023-03-03T04:54:08.970Z,2.83
2023-03-03T04:55:10.483Z,2.86
2023-03-03T04:56:08.929Z,2.84
2023-03-03T04:57:08.922Z,2.84
2023-03-03T04:58:08.908Z,2.86
2023-03-03T04:59:08.896Z,2.84
2023-03-03T05:00:08.891Z,2.87
2023-03-03T05:01:08.881Z,2.86
2023-03-03T05:02:08.871Z,2.86
2023-03-03T05:03:08.852Z,2.86
2023-03-03T05:04:08.841Z,2.86
2023-03-03T05:05:08.824Z,2.84
2023-03-03T05:06:08.818Z,2.86
2023-03-03T05:07:08.802Z,2.87
2023-03-03T05:08:08.792Z,2.89
2023-03-03T05:09:08.805Z,2.89
2023-03-03T05:10:08.782Z,2.89
2023-03-03T05:11:08.758Z,2.89
2023-03-03T05:12:08.756Z,2.90
2023-03-03T05:13:08.740Z,2.92
2023-03-03T05:14:08.753Z,2.92
2023-03-03T05:15:08.761Z,2.94
2023-03-03T05:16:08.790Z,2.97
2023-03-03T05:17:08.806Z,2.95
2023-03-03T05:18:08.818Z,2.97
2023-03-03T05:19:08.800Z,2.97
2023-03-03T05:20:08.823Z,2.97
2023-03-03T05:21:08.674Z,2.98
2023-03-03T05:22:08.643Z,2.98
2023-03-03T05:23:08.629Z,2.98
2023-03-03T05:24:08.623Z,2.98
2023-03-03T05:25:08.634Z,2.99
2023-03-03T05:26:08.601Z,2.99
2023-03-03T05:27:08.586Z,2.99
2023-03-03T05:28:08.574Z,3.01
2023-03-03T05:29:08.579Z,3.01
2023-03-03T05:30:08.549Z,2.99
2023-03-03T05:31:08.561Z,3.01
2023-03-03T05:32:08.569Z,2.99
2023-03-03T05:33:08.519Z,3.02
2023-03-03T05:34:08.512Z,3.04
2023-03-03T05:35:08.495Z,3.02
2023-03-03T05:36:08.487Z,3.02
2023-03-03T05:37:08.475Z,3.01
2023-03-03T05:38:08.478Z,3.02
2023-03-03T05:39:08.456Z,3.04
2023-03-03T05:40:08.443Z,3.04
2023-03-03T05:41:08.458Z,3.05
2023-03-03T05:42:08.431Z,3.05
2023-03-03T05:43:08.412Z,3.07
2023-03-03T05:44:08.403Z,3.07
2023-03-03T05:45:08.394Z,3.07
2023-03-03T05:46:08.377Z,3.08
2023-03-03T05:47:08.366Z,3.08
2023-03-03T05:48:08.358Z,3.10
2023-03-03T05:49:08.346Z,3.10
2023-03-03T05:50:08.334Z,3.12
2023-03-03T05:51:08.324Z,3.12
2023-03-03T05:52:08.313Z,3.13
2023-03-03T05:53:08.304Z,3.10
2023-03-03T05:54:08.292Z,3.15
2023-03-03T05:55:08.284Z,3.13
2023-03-03T05:56:08.275Z,3.13
2023-03-03T05:57:08.288Z,3.13
2023-03-03T05:58:08.249Z,3.13
2023-03-03T05:59:08.238Z,3.13
2023-03-03T06:00:08.229Z,3.13
2023-03-03T06:01:08.226Z,3.16
2023-03-03T06:02:08.308Z,3.15
2023-03-03T06:03:08.268Z,3.15
2023-03-03T06:04:08.183Z,3.16
2023-03-03T06:05:08.175Z,3.17
2023-03-03T06:06:08.167Z,3.16
2023-03-03T06:07:08.151Z,3.17
2023-03-03T06:08:08.145Z,3.16
2023-03-03T06:09:08.139Z,3.16
2023-03-03T06:10:08.127Z,3.19
2023-03-03T06:11:08.106Z,3.19
2023-03-03T06:12:08.097Z,3.20
2023-03-03T06:13:08.112Z,3.19
2023-03-03T06:14:08.075Z,3.20
2023-03-03T06:15:08.113Z,3.19
2023-03-03T06:16:08.179Z,3.17
2023-03-03T06:17:08.042Z,3.17
2023-03-03T06:18:08.033Z,3.16
2023-03-03T06:19:08.019Z,3.17
2023-03-03T06:20:08.009Z,3.19
2023-03-03T06:21:07.995Z,3.17
2023-03-03T06:22:07.988Z,3.19
2023-03-03T06:23:07.995Z,3.19
2023-03-03T06:24:07.971Z,3.16
2023-03-03T06:25:07.957Z,3.16
2023-03-03T06:26:07.950Z,3.17
2023-03-03T06:27:07.945Z,3.19
2023-03-03T06:28:07.920Z,3.17
2023-03-03T06:29:07.935Z,3.19
2023-03-03T06:30:07.912Z,3.20
2023-03-03T06:31:07.885Z,3.20
2023-03-03T06:32:08.055Z,3.23
2023-03-03T06:33:07.862Z,3.22
2023-03-03T06:34:07.854Z,3.25
2023-03-03T06:35:07.874Z,3.25
2023-03-03T06:36:07.826Z,3.25
2023-03-03T06:37:07.814Z,3.26
2023-03-03T06:38:07.813Z,3.28
2023-03-03T06:39:07.802Z,3.30
2023-03-03T06:40:07.783Z,3.31
2023-03-03T06:41:07.775Z,3.31
2023-03-03T06:42:07.757Z,3.34
2023-03-03T06:43:07.745Z,3.35
2023-03-03T06:44:07.746Z,3.37
2023-03-03T06:45:07.746Z,3.34
2023-03-03T06:46:07.793Z,3.42
2023-03-03T06:47:07.701Z,3.41
2023-03-03T06:48:07.697Z,3.42
2023-03-03T06:49:07.679Z,3.44
2023-03-03T06:50:07.667Z,3.45
2023-03-03T06:51:07.654Z,3.50
2023-03-03T06:52:07.644Z,3.52
2023-03-03T06:53:07.637Z,3.52
2023-03-03T06:54:07.632Z,3.53
2023-03-03T06:55:07.613Z,3.56
2023-03-03T06:56:07.606Z,3.56
2023-03-03T06:57:07.594Z,3.56
2023-03-03T06:58:07.587Z,3.56
2023-03-03T06:59:07.566Z,3.57
2023-03-03T07:00:07.559Z,3.59
2023-03-03T07:01:07.645Z,3.60
2023-03-03T07:02:07.539Z,3.62
2023-03-03T07:03:07.523Z,3.64
2023-03-03T07:04:07.574Z,3.70
2023-03-03T07:05:07.506Z,3.68
2023-03-03T07:06:07.497Z,3.72
2023-03-03T07:07:07.517Z,3.72
2023-03-03T07:08:07.475Z,3.72
2023-03-03T07:09:07.464Z,3.74
2023-03-03T07:10:07.510Z,3.74
2023-03-03T07:11:07.495Z,3.78
2023-03-03T07:12:07.436Z,3.81
2023-03-03T07:13:07.446Z,3.78
2023-03-03T07:14:07.415Z,3.81
2023-03-03T07:15:07.408Z,3.82
2023-03-03T07:16:07.399Z,3.89
2023-03-03T07:17:07.412Z,3.92
2023-03-03T07:18:07.381Z,3.93
2023-03-03T07:19:07.364Z,3.95
2023-03-03T07:20:07.369Z,3.93
2023-03-03T07:21:07.345Z,3.95
2023-03-03T07:22:07.330Z,3.99
2023-03-03T07:23:07.372Z,4.02
2023-03-03T07:24:07.327Z,4.04
2023-03-03T07:25:07.301Z,4.07
2023-03-03T07:26:07.287Z,4.11
2023-03-03T07:27:07.277Z,4.16
2023-03-03T07:28:07.270Z,4.24
2023-03-03T07:29:07.259Z,4.26
2023-03-03T07:30:07.242Z,4.28
2023-03-03T07:31:07.277Z,4.29
2023-03-03T07:32:07.241Z,4.29
2023-03-03T07:33:07.270Z,4.32
2023-03-03T07:34:07.201Z,4.35
2023-03-03T07:35:07.191Z,4.36
2023-03-03T07:36:07.187Z,4.34
2023-03-03T07:37:07.168Z,4.35
2023-03-03T07:38:07.155Z,4.28
2023-03-03T07:39:07.163Z,4.26
2023-03-03T07:40:07.136Z,4.28
2023-03-03T07:41:07.126Z,4.32
2023-03-03T07:42:07.119Z,4.32
2023-03-03T07:43:07.107Z,4.32
2023-03-03T07:44:07.102Z,4.35
2023-03-03T07:45:07.087Z,4.39
2023-03-03T07:46:07.120Z,4.43
2023-03-03T07:47:07.061Z,4.46
2023-03-03T07:48:07.048Z,4.47
2023-03-03T07:49:07.062Z,4.46
2023-03-03T07:50:07.026Z,4.47
2023-03-03T07:51:07.016Z,4.47
2023-03-03T07:52:07.004Z,4.43
2023-03-03T07:53:06.996Z,4.42
2023-03-03T07:54:06.985Z,4.36
2023-03-03T07:55:06.974Z,4.34
2023-03-03T07:56:06.961Z,4.31
2023-03-03T07:57:06.958Z,4.32
2023-03-03T07:58:06.942Z,4.44
2023-03-03T07:59:06.943Z,4.68
2023-03-03T08:00:06.922Z,4.77
2023-03-03T08:01:06.941Z,4.74
2023-03-03T08:02:06.896Z,4.75
2023-03-03T08:03:06.889Z,4.77
2023-03-03T08:04:06.984Z,4.86
2023-03-03T08:05:07.028Z,4.94
2023-03-03T08:06:06.853Z,5.27
2023-03-03T08:07:06.864Z,5.48
2023-03-03T08:08:06.831Z,5.92
2023-03-03T08:09:06.833Z,6.61
2023-03-03T08:10:06.924Z,7.12
2023-03-03T08:11:06.805Z,7.52
2023-03-03T08:12:06.800Z,7.89
2023-03-03T08:13:06.815Z,8.17
2023-03-03T08:14:06.758Z,8.29
2023-03-03T08:15:06.752Z,8.54
2023-03-03T08:16:06.770Z,8.65
2023-03-03T08:17:06.723Z,8.76
2023-03-03T08:18:06.717Z,8.83
2023-03-03T08:19:06.710Z,8.83
2023-03-03T08:20:06.688Z,9.04
2023-03-03T08:21:06.846Z,9.26
2023-03-03T08:22:06.663Z,9.37
2023-03-03T08:23:06.653Z,9.12
2023-03-03T08:24:06.649Z,9.31
2023-03-03T08:25:06.634Z,9.48
2023-03-03T08:26:06.617Z,9.59
2023-03-03T08:27:06.609Z,9.86
2023-03-03T08:28:06.594Z,10.02
2023-03-03T08:29:06.783Z,10.02
2023-03-03T08:30:06.566Z,10.20
2023-03-03T08:31:18.477Z,10.25
2023-03-03T08:32:07.681Z,10.34
2023-03-03T08:33:06.540Z,10.52
2023-03-03T08:34:06.558Z,10.78
2023-03-03T08:35:06.535Z,10.68
2023-03-03T08:36:08.563Z,10.01
2023-03-03T08:37:06.519Z,9.96
2023-03-03T08:38:06.506Z,9.81
2023-03-03T08:39:06.474Z,9.71
2023-03-03T08:40:06.467Z,10.11
2023-03-03T08:41:06.450Z,10.06
2023-03-03T08:42:06.435Z,9.73
2023-03-03T08:43:06.427Z,9.16
2023-03-03T08:44:06.429Z,8.71
2023-03-03T08:45:06.404Z,8.43
2023-03-03T08:46:06.461Z,8.06
2023-03-03T08:47:06.374Z,7.66
2023-03-03T08:48:06.412Z,7.52
2023-03-03T08:49:06.358Z,7.47
2023-03-03T08:50:06.421Z,7.51
2023-03-03T08:51:06.335Z,7.48
2023-03-03T08:52:06.323Z,7.45
2023-03-03T08:53:06.340Z,7.48
2023-03-03T08:54:06.307Z,7.50
2023-03-03T08:55:07.722Z,7.48
2023-03-03T08:56:06.286Z,7.50
2023-03-03T08:57:06.282Z,7.51
2023-03-03T08:58:06.262Z,7.48
2023-03-03T08:59:06.250Z,7.42
2023-03-03T09:00:06.238Z,7.47
2023-03-03T09:01:06.233Z,7.52
2023-03-03T09:02:06.313Z,7.55
2023-03-03T09:03:06.201Z,7.60
2023-03-03T09:04:06.293Z,7.60
2023-03-03T09:05:06.184Z,7.63
2023-03-03T09:06:06.173Z,7.62
2023-03-03T09:07:06.160Z,7.67
2023-03-03T09:08:06.152Z,7.71
2023-03-03T09:09:06.158Z,7.70
2023-03-03T09:10:06.132Z,7.66
2023-03-03T09:11:06.120Z,7.69
2023-03-03T09:12:06.104Z,7.71
2023-03-03T09:13:06.093Z,7.81
2023-03-03T09:14:06.084Z,7.77
2023-03-03T09:15:06.075Z,7.63
2023-03-03T09:16:06.120Z,7.69
2023-03-03T09:17:06.106Z,7.71
2023-03-03T09:18:06.038Z,7.82
2023-03-03T09:19:06.023Z,7.88
2023-03-03T09:20:06.015Z,7.92
2023-03-03T09:21:06.009Z,7.95
2023-03-03T09:22:06.005Z,7.91
2023-03-03T09:23:05.979Z,8.02
2023-03-03T09:24:05.974Z,8.04
2023-03-03T09:25:05.987Z,8.14
2023-03-03T09:26:05.955Z,8.18
2023-03-03T09:27:05.938Z,8.21
2023-03-03T09:28:05.925Z,8.28
2023-03-03T09:29:05.913Z,8.34
2023-03-03T09:30:05.917Z,8.39
2023-03-03T09:31:07.518Z,8.36
2023-03-03T09:32:06.016Z,8.18
2023-03-03T09:33:05.871Z,8.09
2023-03-03T09:34:05.858Z,8.06
2023-03-03T09:35:05.848Z,8.09
2023-03-03T09:36:05.841Z,8.04
2023-03-03T09:37:05.826Z,8.09
2023-03-03T09:38:05.812Z,8.24
2023-03-03T09:39:05.803Z,8.36
2023-03-03T09:40:05.792Z,8.50
2023-03-03T09:41:05.801Z,8.60
2023-03-03T09:42:05.768Z,8.70
2023-03-03T09:43:05.761Z,8.83
2023-03-03T09:44:05.781Z,8.89
2023-03-03T09:45:05.735Z,8.96
2023-03-03T09:46:05.750Z,8.86
2023-03-03T09:47:05.715Z,8.79
2023-03-03T09:48:05.746Z,8.70
2023-03-03T09:49:05.700Z,8.71
2023-03-03T09:50:05.693Z,8.64
2023-03-03T09:51:05.674Z,8.57
2023-03-03T09:52:05.662Z,8.37
2023-03-03T09:53:05.647Z,8.31
2023-03-03T09:54:05.647Z,8.28
2023-03-03T09:55:05.632Z,8.25
2023-03-03T09:56:05.617Z,8.32
2023-03-03T09:57:05.659Z,8.39
2023-03-03T09:58:10.922Z,8.47
2023-03-03T09:59:05.581Z,8.40
2023-03-03T10:00:05.573Z,8.46
2023-03-03T10:01:05.568Z,8.54
2023-03-03T10:02:06.590Z,8.60
2023-03-03T10:03:05.555Z,8.70
2023-03-03T10:04:05.730Z,8.64
2023-03-03T10:05:05.515Z,8.52
2023-03-03T10:06:05.504Z,8.40
2023-03-03T10:07:05.489Z,8.42
2023-03-03T10:08:05.480Z,8.46
2023-03-03T10:09:05.477Z,8.46
2023-03-03T10:10:05.471Z,8.28
2023-03-03T10:11:05.450Z,8.21
2023-03-03T10:12:05.444Z,8.24
2023-03-03T10:13:05.464Z,8.06
2023-03-03T10:14:05.525Z,8.07
2023-03-03T10:15:05.409Z,8.17
2023-03-03T10:16:05.431Z,8.20
2023-03-03T10:17:05.391Z,8.12
2023-03-03T10:18:05.381Z,8.97
2023-03-03T10:19:05.370Z,9.59
2023-03-03T10:20:05.352Z,9.70
2023-03-03T10:21:05.341Z,9.50
2023-03-03T10:22:05.329Z,9.34
2023-03-03T10:23:05.331Z,9.04
2023-03-03T10:24:05.345Z,8.83
2023-03-03T10:25:05.320Z,8.76
2023-03-03T10:26:05.309Z,8.57
2023-03-03T10:27:13.492Z,8.42
2023-03-03T10:28:06.295Z,8.39
2023-03-03T10:29:05.331Z,9.12
2023-03-03T10:30:05.249Z,10.35
2023-03-03T10:31:10.727Z,10.42
2023-03-03T10:32:06.430Z,10.34
2023-03-03T10:33:05.415Z,9.93
2023-03-03T10:34:05.249Z,10.38
2023-03-03T10:35:05.184Z,10.72
2023-03-03T10:36:07.745Z,10.83
2023-03-03T10:37:05.161Z,11.20
2023-03-03T10:38:05.156Z,11.96
2023-03-03T10:39:05.144Z,12.51
2023-03-03T10:40:05.164Z,13.43
2023-03-03T10:41:05.118Z,13.75
2023-03-03T10:42:05.108Z,12.69
2023-03-03T10:43:05.095Z,11.49
2023-03-03T10:44:05.086Z,10.62
2023-03-03T10:45:05.097Z,9.95
2023-03-03T10:46:05.115Z,9.65
2023-03-03T10:47:05.049Z,9.48
2023-03-03T10:48:05.046Z,9.62
2023-03-03T10:49:05.029Z,10.72
2023-03-03T10:50:05.020Z,11.94
2023-03-03T10:51:05.011Z,12.94
2023-03-03T10:52:05.699Z,13.39
2023-03-03T10:53:04.987Z,14.02
2023-03-03T10:54:05.321Z,14.48
2023-03-03T10:55:04.962Z,14.83
2023-03-03T10:56:04.949Z,13.96
2023-03-03T10:57:04.945Z,12.89
2023-03-03T10:58:04.927Z,12.04
2023-03-03T10:59:04.920Z,11.56
2023-03-03T11:00:04.909Z,11.28
2023-03-03T11:01:05.018Z,10.99
2023-03-03T11:02:04.887Z,10.90
2023-03-03T11:03:04.882Z,10.84
2023-03-03T11:04:04.915Z,10.68
2023-03-03T11:05:04.853Z,10.63
2023-03-03T11:06:04.843Z,10.84
2023-03-03T11:07:06.694Z,11.28
2023-03-03T11:08:04.821Z,11.36
2023-03-03T11:09:04.813Z,11.21
2023-03-03T11:10:04.808Z,11.05
2023-03-03T11:11:04.786Z,10.87
2023-03-03T11:12:04.777Z,10.62
2023-03-03T11:13:04.767Z,10.38
2023-03-03T11:14:04.754Z,10.28
2023-03-03T11:15:04.747Z,10.11
2023-03-03T11:16:04.735Z,9.98
2023-03-03T11:17:04.808Z,9.91
2023-03-03T11:18:04.710Z,9.88
2023-03-03T11:19:04.817Z,9.70
2023-03-03T11:20:04.701Z,9.67
2023-03-03T11:21:04.682Z,9.60
2023-03-03T11:22:04.668Z,9.48
2023-03-03T11:23:04.658Z,9.45
2023-03-03T11:24:04.646Z,9.42
2023-03-03T11:25:04.634Z,9.44
2023-03-03T11:26:04.628Z,9.42
2023-03-03T11:27:04.648Z,9.40
2023-03-03T11:28:04.598Z,9.34
2023-03-03T11:29:04.591Z,9.30
2023-03-03T11:30:04.576Z,9.30
2023-03-03T11:31:04.601Z,9.15
2023-03-03T11:32:04.560Z,9.04
2023-03-03T11:33:04.570Z,8.96
2023-03-03T11:34:04.532Z,8.85
2023-03-03T11:35:04.523Z,8.82
2023-03-03T11:36:04.594Z,8.82
2023-03-03T11:37:04.501Z,8.91
2023-03-03T11:38:04.489Z,9.00
2023-03-03T11:39:04.576Z,9.08
2023-03-03T11:40:04.472Z,9.03
2023-03-03T11:41:04.461Z,8.97
2023-03-03T11:42:04.462Z,8.94
2023-03-03T11:43:04.436Z,8.88
2023-03-03T11:44:04.423Z,8.82
2023-03-03T11:45:04.418Z,8.79
2023-03-03T11:46:04.459Z,8.79
2023-03-03T11:47:04.403Z,8.71
2023-03-03T11:48:04.382Z,8.78
2023-03-03T11:49:04.394Z,8.71
2023-03-03T11:50:04.467Z,8.63
2023-03-03T11:51:04.351Z,8.70
2023-03-03T11:52:04.337Z,8.76
2023-03-03T11:53:04.361Z,8.75
2023-03-03T11:54:04.415Z,8.76
2023-03-03T11:55:04.304Z,8.88
2023-03-03T11:56:04.300Z,9.01
2023-03-03T11:57:04.281Z,9.06
2023-03-03T11:58:04.273Z,9.12
2023-03-03T11:59:04.259Z,9.13
2023-03-03T12:00:04.257Z,9.01
2023-03-03T12:01:04.245Z,8.91
2023-03-03T12:02:04.231Z,8.96
2023-03-03T12:03:04.229Z,8.97
2023-03-03T12:04:04.210Z,8.96
2023-03-03T12:05:04.221Z,8.88
2023-03-03T12:06:04.243Z,8.78
2023-03-03T12:07:17.955Z,8.75
2023-03-03T12:08:04.217Z,8.78
2023-03-03T12:09:04.226Z,8.78
2023-03-03T12:10:04.134Z,8.80
2023-03-03T12:11:04.125Z,8.78
2023-03-03T12:12:04.133Z,8.76
2023-03-03T12:13:04.122Z,8.73
2023-03-03T12:14:04.131Z,8.76
2023-03-03T12:15:04.083Z,8.82
2023-03-03T12:16:04.135Z,8.88
2023-03-03T12:17:04.084Z,8.97
2023-03-03T12:18:04.066Z,9.04
2023-03-03T12:19:04.038Z,9.17
2023-03-03T12:20:04.058Z,9.23
2023-03-03T12:21:04.075Z,9.24
2023-03-03T12:22:04.036Z,9.27
2023-03-03T12:23:07.309Z,9.31
2023-03-03T12:24:04.914Z,9.32
2023-03-03T12:25:03.997Z,9.32
2023-03-03T12:26:04.029Z,9.40
2023-03-03T12:27:04.011Z,9.27
2023-03-03T12:28:04.058Z,9.20
2023-03-03T12:29:04.045Z,9.22
2023-03-03T12:30:05.365Z,9.10
2023-03-03T12:31:04.116Z,9.17
2023-03-03T12:32:04.114Z,9.17
2023-03-03T12:33:03.951Z,9.20
2023-03-03T12:34:03.890Z,9.04
2023-03-03T12:35:03.884Z,9.00
2023-03-03T12:36:03.902Z,9.08
2023-03-03T12:37:03.887Z,9.04
2023-03-03T12:38:03.867Z,9.01
2023-03-03T12:39:03.905Z,8.98
2023-03-03T12:40:03.835Z,8.93
2023-03-03T12:41:03.815Z,8.89
2023-03-03T12:42:05.290Z,8.91
2023-03-03T12:43:03.806Z,8.93
2023-03-03T12:44:03.781Z,8.91
2023-03-03T12:45:03.771Z,8.96
2023-03-03T12:46:03.759Z,9.01
2023-03-03T12:47:03.872Z,8.91
2023-03-03T12:48:03.737Z,8.88
2023-03-03T12:49:03.736Z,8.88
2023-03-03T12:50:07.816Z,8.89
2023-03-03T12:51:03.714Z,8.86
2023-03-03T12:52:03.699Z,8.94
2023-03-03T12:53:09.940Z,9.00
2023-03-03T12:54:04.709Z,9.01
2023-03-03T12:55:03.665Z,8.96
2023-03-03T12:56:03.653Z,8.85
2023-03-03T12:57:03.648Z,8.83
2023-03-03T12:58:03.659Z,8.91
2023-03-03T12:59:03.621Z,8.79
2023-03-03T13:00:03.606Z,8.83
2023-03-03T13:01:03.709Z,8.96
2023-03-03T13:02:03.580Z,9.12
2023-03-03T13:03:03.576Z,9.06
2023-03-03T13:04:03.574Z,9.13
2023-03-03T13:05:03.550Z,9.19
2023-03-03T13:06:03.540Z,9.22
2023-03-03T13:07:03.536Z,9.22
2023-03-03T13:08:03.599Z,9.24
2023-03-03T13:09:03.536Z,9.22
2023-03-03T13:10:03.494Z,9.19
2023-03-03T13:11:03.502Z,9.12
2023-03-03T13:12:03.470Z,9.13
2023-03-03T13:13:03.460Z,9.16
2023-03-03T13:14:03.469Z,9.23
2023-03-03T13:15:03.439Z,9.23
2023-03-03T13:16:06.450Z,9.26